Alleghany, California
Current Conditions -  °F | °C
As of 1:52 AM on Tuesday 21 Oct 2014 (Local Time) from KBLU Reporting Station
Moderate Fog Moderate Fog  
Wind Chill:   Ceiling: 200
Heat Index:   Visibility: 0.5mi
Dew Point:   Wind: 10mph
Humidity: 93%   Direction: 170°S
Pressure: 30.1"   Gusts: NA
Location:  39.47°N, 120.85°W
Report Text: KBLU 210852Z AUTO 17009KT 1/2SM FG VV002 04/03 A3010 RMK AO2 SLP159 T00390028 51009
Loading
Personal Weather Stations






























Interactive Weather Map
Tropical Storm Tracking
New forecast layout! Learn more

10-Day Weather Forecast

Advertisements
Track Severe Weather on mobile